sensor_id;sensor_type;location;lat;lon;timestamp;pressure;altitude;pressure_sealevel;temperature;humidity
39897;BME280;25567;48.276;14.242;2023-02-23T00:02:18;98104.44;;;4.44;100.00
39897;BME280;25567;48.276;14.242;2023-02-23T00:04:46;98092.91;;;4.39;99.55
39897;BME280;25567;48.276;14.242;2023-02-23T00:07:14;98096.91;;;4.28;100.00
39897;BME280;25567;48.276;14.242;2023-02-23T00:09:45;98095.28;;;4.27;99.79
39897;BME280;25567;48.276;14.242;2023-02-23T00:12:13;98091.84;;;4.26;100.00
39897;BME280;25567;48.276;14.242;2023-02-23T00:14:44;98094.06;;;4.23;99.35
39897;BME280;25567;48.276;14.242;2023-02-23T00:17:12;98093.03;;;4.17;100.00
39897;BME280;25567;48.276;14.242;2023-02-23T00:19:41;98095.47;;;4.18;99.28
39897;BME280;25567;48.276;14.242;2023-02-23T00:22:11;98091.41;;;4.16;99.72
39897;BME280;25567;48.276;14.242;2023-02-23T00:24:39;98095.66;;;4.17;98.97
39897;BME280;25567;48.276;14.242;2023-02-23T00:27:10;98101.91;;;4.16;99.61
39897;BME280;25567;48.276;14.242;2023-02-23T00:29:43;98098.69;;;4.14;99.66
39897;BME280;25567;48.276;14.242;2023-02-23T00:32:16;98096.22;;;4.12;99.37
39897;BME280;25567;48.276;14.242;2023-02-23T00:34:47;98104.31;;;4.11;99.98
39897;BME280;25567;48.276;14.242;2023-02-23T00:37:18;98093.41;;;4.07;99.03
39897;BME280;25567;48.276;14.242;2023-02-23T00:39:46;98100.66;;;4.05;98.26
39897;BME280;25567;48.276;14.242;2023-02-23T00:42:14;98098.22;;;4.04;98.50
39897;BME280;25567;48.276;14.242;2023-02-23T00:44:43;98093.97;;;4.03;99.57
39897;BME280;25567;48.276;14.242;2023-02-23T00:47:13;98095.97;;;4.00;99.37
39897;BME280;25567;48.276;14.242;2023-02-23T00:49:43;98093.16;;;3.95;98.65
39897;BME280;25567;48.276;14.242;2023-02-23T00:52:11;98094.53;;;3.91;97.64
39897;BME280;25567;48.276;14.242;2023-02-23T00:54:41;98100.31;;;3.80;97.85
39897;BME280;25567;48.276;14.242;2023-02-23T00:57:07;98099.09;;;3.76;98.30
39897;BME280;25567;48.276;14.242;2023-02-23T00:59:35;98094.84;;;3.75;97.83
39897;BME280;25567;48.276;14.242;2023-02-23T01:02:04;98098.25;;;3.75;97.63
39897;BME280;25567;48.276;14.242;2023-02-23T01:04:32;98101.03;;;3.67;98.96
39897;BME280;25567;48.276;14.242;2023-02-23T01:07:00;98106.50;;;3.65;98.77
39897;BME280;25567;48.276;14.242;2023-02-23T01:09:30;98105.28;;;3.68;99.06
39897;BME280;25567;48.276;14.242;2023-02-23T01:11:57;98101.44;;;3.64;98.32
39897;BME280;25567;48.276;14.242;2023-02-23T01:14:30;98105.44;;;3.60;98.86
39897;BME280;25567;48.276;14.242;2023-02-23T01:16:59;98101.84;;;3.61;98.12
39897;BME280;25567;48.276;14.242;2023-02-23T01:19:28;98099.53;;;3.51;98.88
39897;BME280;25567;48.276;14.242;2023-02-23T01:22:00;98100.53;;;3.50;99.59
39897;BME280;25567;48.276;14.242;2023-02-23T01:24:29;98098.31;;;3.47;98.94
39897;BME280;25567;48.276;14.242;2023-02-23T01:26:56;98095.63;;;3.40;99.83
39897;BME280;25567;48.276;14.242;2023-02-23T01:29:25;98094.63;;;3.41;99.08
39897;BME280;25567;48.276;14.242;2023-02-23T01:31:54;98088.97;;;3.38;100.00
39897;BME280;25567;48.276;14.242;2023-02-23T01:34:23;98090.97;;;3.36;100.00
39897;BME280;25567;48.276;14.242;2023-02-23T01:36:52;98090.59;;;3.39;100.00
39897;BME280;25567;48.276;14.242;2023-02-23T01:39:20;98085.72;;;3.36;100.00
39897;BME280;25567;48.276;14.242;2023-02-23T01:41:48;98083.09;;;3.36;99.93
39897;BME280;25567;48.276;14.242;2023-02-23T01:46:47;98085.09;;;3.33;100.00
39897;BME280;25567;48.276;14.242;2023-02-23T01:49:23;98075.81;;;3.31;100.00
39897;BME280;25567;48.276;14.242;2023-02-23T01:52:03;98080.84;;;3.32;100.00
39897;BME280;25567;48.276;14.242;2023-02-23T01:54:37;98080.84;;;3.32;100.00
39897;BME280;25567;48.276;14.242;2023-02-23T01:57:06;98083.09;;;3.36;100.00
39897;BME280;25567;48.276;14.242;2023-02-23T01:59:43;98084.09;;;3.34;100.00
39897;BME280;25567;48.276;14.242;2023-02-23T02:02:12;98085.28;;;3.32;100.00
39897;BME280;25567;48.276;14.242;2023-02-23T02:04:42;98086.09;;;3.32;100.00
39897;BME280;25567;48.276;14.242;2023-02-23T02:07:12;98087.09;;;3.31;100.00
39897;BME280;25567;48.276;14.242;2023-02-23T02:09:42;98090.09;;;3.28;100.00
39897;BME280;25567;48.276;14.242;2023-02-23T02:12:32;98079.03;;;3.05;100.00
39897;BME280;25567;48.276;14.242;2023-02-23T02:15:03;98083.97;;;3.14;100.00
39897;BME280;25567;48.276;14.242;2023-02-23T02:20:51;98080.06;;;3.10;100.00
39897;BME280;25567;48.276;14.242;2023-02-23T02:23:47;98082.28;;;2.85;98.74
39897;BME280;25567;48.276;14.242;2023-02-23T02:26:42;98086.38;;;2.94;99.16
39897;BME280;25567;48.276;14.242;2023-02-23T02:31:59;98074.41;;;2.85;99.28
39897;BME280;25567;48.276;14.242;2023-02-23T02:35:02;98076.25;;;2.84;99.58
39897;BME280;25567;48.276;14.242;2023-02-23T02:40:20;98075.06;;;2.87;100.00
39897;BME280;25567;48.276;14.242;2023-02-23T02:43:10;98075.47;;;2.69;98.67
39897;BME280;25567;48.276;14.242;2023-02-23T02:46:03;98070.31;;;2.76;99.59
39897;BME280;25567;48.276;14.242;2023-02-23T02:48:38;98075.38;;;2.77;99.88
39897;BME280;25567;48.276;14.242;2023-02-23T02:51:21;98076.38;;;2.76;100.00
39897;BME280;25567;48.276;14.242;2023-02-23T02:53:58;98071.38;;;2.60;99.53
39897;BME280;25567;48.276;14.242;2023-02-23T02:56:36;98075.88;;;2.66;99.65
39897;BME280;25567;48.276;14.242;2023-02-23T02:59:12;98079.91;;;2.69;100.00
39897;BME280;25567;48.276;14.242;2023-02-23T03:01:57;98079.91;;;2.69;100.00
39897;BME280;25567;48.276;14.242;2023-02-23T03:04:41;98081.91;;;2.66;100.00
39897;BME280;25567;48.276;14.242;2023-02-23T03:07:30;98081.28;;;2.64;100.00
39897;BME280;25567;48.276;14.242;2023-02-23T03:10:28;98079.66;;;2.63;100.00
39897;BME280;25567;48.276;14.242;2023-02-23T03:13:35;98093.63;;;2.49;100.00
39897;BME280;25567;48.276;14.242;2023-02-23T03:19:26;98090.38;;;2.47;100.00
39897;BME280;25567;48.276;14.242;2023-02-23T03:22:27;98096.22;;;2.49;100.00
39897;BME280;25567;48.276;14.242;2023-02-23T03:25:18;98090.25;;;2.55;100.00
39897;BME280;25567;48.276;14.242;2023-02-23T03:37:05;98095.28;;;2.35;100.00
39897;BME280;25567;48.276;14.242;2023-02-23T03:40:01;98096.66;;;2.16;100.00
39897;BME280;25567;48.276;14.242;2023-02-23T03:42:49;98091.97;;;2.26;100.00
39897;BME280;25567;48.276;14.242;2023-02-23T03:45:34;98097.91;;;2.20;100.00
39897;BME280;25567;48.276;14.242;2023-02-23T03:48:19;98100.88;;;2.32;100.00
39897;BME280;25567;48.276;14.242;2023-02-23T03:51:05;98099.69;;;2.34;100.00
39897;BME280;25567;48.276;14.242;2023-02-23T03:53:53;98108.09;;;2.30;100.00
39897;BME280;25567;48.276;14.242;2023-02-23T03:56:43;98109.13;;;2.14;100.00
39897;BME280;25567;48.276;14.242;2023-02-23T03:59:31;98104.44;;;2.24;100.00
39897;BME280;25567;48.276;14.242;2023-02-23T04:02:17;98102.69;;;2.31;100.00
39897;BME280;25567;48.276;14.242;2023-02-23T04:05:06;98103.69;;;2.30;100.00
39897;BME280;25567;48.276;14.242;2023-02-23T04:07:51;98103.56;;;2.39;100.00
39897;BME280;25567;48.276;14.242;2023-02-23T04:10:43;98107.47;;;2.43;100.00
39897;BME280;25567;48.276;14.242;2023-02-23T04:13:29;98104.72;;;2.51;100.00
39897;BME280;25567;48.276;14.242;2023-02-23T04:16:03;98102.72;;;2.53;100.00
39897;BME280;25567;48.276;14.242;2023-02-23T04:18:33;98102.38;;;2.56;100.00
39897;BME280;25567;48.276;14.242;2023-02-23T04:21:02;98111.59;;;2.52;100.00
39897;BME280;25567;48.276;14.242;2023-02-23T04:23:34;98097.53;;;2.60;100.00
39897;BME280;25567;48.276;14.242;2023-02-23T04:26:03;98108.34;;;2.50;100.00
39897;BME280;25567;48.276;14.242;2023-02-23T04:28:31;98104.66;;;2.44;100.00
39897;BME280;25567;48.276;14.242;2023-02-23T04:31:00;98098.78;;;2.42;100.00
39897;BME280;25567;48.276;14.242;2023-02-23T04:33:29;98096.72;;;2.38;100.00
39897;BME280;25567;48.276;14.242;2023-02-23T04:35:59;98099.03;;;2.47;100.00
39897;BME280;25567;48.276;14.242;2023-02-23T04:38:27;98101.91;;;2.53;100.00
39897;BME280;25567;48.276;14.242;2023-02-23T04:40:56;98104.84;;;2.64;100.00
39897;BME280;25567;48.276;14.242;2023-02-23T04:43:24;98103.69;;;2.67;100.00
39897;BME280;25567;48.276;14.242;2023-02-23T04:45:51;98100.53;;;2.57;100.00
39897;BME280;25567;48.276;14.242;2023-02-23T04:48:21;98112.25;;;2.61;100.00
39897;BME280;25567;48.276;14.242;2023-02-23T04:50:53;98109.97;;;2.51;100.00
39897;BME280;25567;48.276;14.242;2023-02-23T04:53:20;98104.72;;;2.51;100.00
39897;BME280;25567;48.276;14.242;2023-02-23T04:55:47;98110.81;;;2.58;100.00
39897;BME280;25567;48.276;14.242;2023-02-23T04:58:15;98114.09;;;2.60;100.00
39897;BME280;25567;48.276;14.242;2023-02-23T05:00:44;98104.22;;;2.62;100.00
39897;BME280;25567;48.276;14.242;2023-02-23T05:03:13;98108.47;;;2.63;100.00
39897;BME280;25567;48.276;14.242;2023-02-23T05:05:41;98107.84;;;2.61;100.00
39897;BME280;25567;48.276;14.242;2023-02-23T05:08:10;98102.44;;;2.63;100.00
39897;BME280;25567;48.276;14.242;2023-02-23T05:10:40;98101.84;;;2.67;100.00
39897;BME280;25567;48.276;14.242;2023-02-23T05:13:08;98093.00;;;2.69;100.00
39897;BME280;25567;48.276;14.242;2023-02-23T05:15:39;98099.75;;;2.56;100.00
39897;BME280;25567;48.276;14.242;2023-02-23T05:18:07;98092.75;;;2.63;100.00
39897;BME280;25567;48.276;14.242;2023-02-23T05:20:36;98105.59;;;2.58;100.00
39897;BME280;25567;48.276;14.242;2023-02-23T05:23:04;98098.19;;;2.62;100.00
39897;BME280;25567;48.276;14.242;2023-02-23T05:25:33;98095.63;;;2.69;100.00
39897;BME280;25567;48.276;14.242;2023-02-23T05:28:03;98091.19;;;2.69;100.00
39897;BME280;25567;48.276;14.242;2023-02-23T05:30:35;98098.72;;;2.57;100.00
39897;BME280;25567;48.276;14.242;2023-02-23T05:33:03;98094.75;;;2.61;100.00
39897;BME280;25567;48.276;14.242;2023-02-23T05:35:31;98102.38;;;2.56;100.00
39897;BME280;25567;48.276;14.242;2023-02-23T05:38:00;98100.59;;;2.42;100.00
39897;BME280;25567;48.276;14.242;2023-02-23T05:40:29;98109.25;;;2.42;100.00
39897;BME280;25567;48.276;14.242;2023-02-23T05:42:59;98104.00;;;2.42;100.00
39897;BME280;25567;48.276;14.242;2023-02-23T05:45:29;98104.78;;;2.58;100.00
39897;BME280;25567;48.276;14.242;2023-02-23T05:47:56;98120.38;;;2.66;100.00
39897;BME280;25567;48.276;14.242;2023-02-23T05:50:25;98114.22;;;2.74;100.00
39897;BME280;25567;48.276;14.242;2023-02-23T05:52:56;98109.78;;;2.74;100.00
39897;BME280;25567;48.276;14.242;2023-02-23T05:55:25;98116.66;;;2.75;100.00
39897;BME280;25567;48.276;14.242;2023-02-23T05:57:55;98117.28;;;2.77;100.00
39897;BME280;25567;48.276;14.242;2023-02-23T06:00:24;98122.53;;;2.77;100.00
39897;BME280;25567;48.276;14.242;2023-02-23T06:02:52;98125.56;;;2.81;100.00
39897;BME280;25567;48.276;14.242;2023-02-23T06:05:21;98121.56;;;2.85;100.00
39897;BME280;25567;48.276;14.242;2023-02-23T06:07:48;98129.06;;;2.88;100.00
39897;BME280;25567;48.276;14.242;2023-02-23T06:10:16;98125.47;;;2.89;100.00
39897;BME280;25567;48.276;14.242;2023-02-23T06:12:46;98130.94;;;2.94;100.00
39897;BME280;25567;48.276;14.242;2023-02-23T06:15:14;98128.16;;;2.96;100.00
39897;BME280;25567;48.276;14.242;2023-02-23T06:17:43;98132.00;;;3.00;100.00
39897;BME280;25567;48.276;14.242;2023-02-23T06:20:12;98127.19;;;3.04;100.00
39897;BME280;25567;48.276;14.242;2023-02-23T06:22:41;98136.47;;;3.06;100.00
39897;BME280;25567;48.276;14.242;2023-02-23T06:25:09;98132.47;;;3.10;100.00
39897;BME280;25567;48.276;14.242;2023-02-23T06:27:38;98130.75;;;3.17;100.00
39897;BME280;25567;48.276;14.242;2023-02-23T06:30:07;98139.59;;;3.16;100.00
39897;BME280;25567;48.276;14.242;2023-02-23T06:32:35;98143.22;;;3.15;100.00
39897;BME280;25567;48.276;14.242;2023-02-23T06:35:04;98143.06;;;3.17;100.00
39897;BME280;25567;48.276;14.242;2023-02-23T06:37:34;98144.09;;;3.23;100.00
39897;BME280;25567;48.276;14.242;2023-02-23T06:40:04;98151.56;;;3.26;100.00
39897;BME280;25567;48.276;14.242;2023-02-23T06:42:33;98158.44;;;3.27;100.00
39897;BME280;25567;48.276;14.242;2023-02-23T06:45:03;98151.03;;;3.30;100.00
39897;BME280;25567;48.276;14.242;2023-02-23T06:47:32;98148.03;;;3.33;100.00
39897;BME280;25567;48.276;14.242;2023-02-23T06:49:59;98160.25;;;3.48;100.00
39897;BME280;25567;48.276;14.242;2023-02-23T06:52:28;98152.31;;;3.41;100.00
39897;BME280;25567;48.276;14.242;2023-02-23T06:55:01;98157.81;;;3.46;100.00
39897;BME280;25567;48.276;14.242;2023-02-23T06:57:28;98153.56;;;3.45;100.00
39897;BME280;25567;48.276;14.242;2023-02-23T06:59:58;98161.63;;;3.44;100.00
39897;BME280;25567;48.276;14.242;2023-02-23T07:02:26;98167.28;;;3.47;100.00
39897;BME280;25567;48.276;14.242;2023-02-23T07:04:55;98163.09;;;3.53;100.00
39897;BME280;25567;48.276;14.242;2023-02-23T07:07:24;98174.00;;;3.57;100.00
39897;BME280;25567;48.276;14.242;2023-02-23T07:09:52;98166.56;;;3.60;100.00
39897;BME280;25567;48.276;14.242;2023-02-23T07:12:20;98168.19;;;3.61;100.00
39897;BME280;25567;48.276;14.242;2023-02-23T07:14:47;98179.50;;;3.62;100.00
39897;BME280;25567;48.276;14.242;2023-02-23T07:17:18;98177.50;;;3.64;100.00
39897;BME280;25567;48.276;14.242;2023-02-23T07:19:45;98178.75;;;3.68;100.00
39897;BME280;25567;48.276;14.242;2023-02-23T07:22:14;98174.72;;;3.72;100.00
39897;BME280;25567;48.276;14.242;2023-02-23T07:24:43;98181.03;;;3.78;100.00
39897;BME280;25567;48.276;14.242;2023-02-23T07:27:13;98176.84;;;3.83;100.00
39897;BME280;25567;48.276;14.242;2023-02-23T07:29:42;98173.44;;;3.90;100.00
39897;BME280;25567;48.276;14.242;2023-02-23T07:32:09;98174.69;;;4.00;100.00
39897;BME280;25567;48.276;14.242;2023-02-23T07:34:37;98173.34;;;4.05;100.00
39897;BME280;25567;48.276;14.242;2023-02-23T07:37:06;98181.06;;;4.13;100.00
39897;BME280;25567;48.276;14.242;2023-02-23T07:39:36;98180.25;;;4.19;100.00
39897;BME280;25567;48.276;14.242;2023-02-23T07:42:06;98177.88;;;4.24;100.00
39897;BME280;25567;48.276;14.242;2023-02-23T07:44:33;98173.84;;;4.28;100.00
39897;BME280;25567;48.276;14.242;2023-02-23T07:47:03;98178.94;;;4.30;100.00
39897;BME280;25567;48.276;14.242;2023-02-23T07:49:30;98183.97;;;4.31;100.00
39897;BME280;25567;48.276;14.242;2023-02-23T07:52:00;98182.78;;;4.34;100.00
39897;BME280;25567;48.276;14.242;2023-02-23T07:54:28;98180.75;;;4.36;100.00
39897;BME280;25567;48.276;14.242;2023-02-23T07:56:58;98176.72;;;4.40;100.00
39897;BME280;25567;48.276;14.242;2023-02-23T07:59:27;98176.75;;;4.47;100.00
39897;BME280;25567;48.276;14.242;2023-02-23T08:01:55;98189.13;;;4.53;100.00
39897;BME280;25567;48.276;14.242;2023-02-23T08:04:25;98187.16;;;4.68;100.00
39897;BME280;25567;48.276;14.242;2023-02-23T08:06:53;98184.13;;;4.72;100.00
39897;BME280;25567;48.276;14.242;2023-02-23T08:09:21;98188.38;;;4.73;100.00
39897;BME280;25567;48.276;14.242;2023-02-23T08:11:48;98190.41;;;4.77;100.00
39897;BME280;25567;48.276;14.242;2023-02-23T08:14:16;98186.56;;;4.73;100.00
39897;BME280;25567;48.276;14.242;2023-02-23T08:16:47;98190.25;;;4.79;100.00
39897;BME280;25567;48.276;14.242;2023-02-23T08:19:17;98187.47;;;5.00;100.00
39897;BME280;25567;48.276;14.242;2023-02-23T08:21:49;98197.34;;;4.98;100.00
39897;BME280;25567;48.276;14.242;2023-02-23T08:24:20;98197.19;;;5.07;100.00
39897;BME280;25567;48.276;14.242;2023-02-23T08:26:50;98198.78;;;5.01;100.00
39897;BME280;25567;48.276;14.242;2023-02-23T08:29:19;98189.88;;;5.02;100.00
39897;BME280;25567;48.276;14.242;2023-02-23T08:31:49;98199.59;;;5.01;100.00
39897;BME280;25567;48.276;14.242;2023-02-23T08:34:19;98202.59;;;4.98;100.00
39897;BME280;25567;48.276;14.242;2023-02-23T08:36:48;98200.81;;;4.99;100.00
39897;BME280;25567;48.276;14.242;2023-02-23T08:39:17;98197.56;;;4.97;100.00
39897;BME280;25567;48.276;14.242;2023-02-23T08:41:46;98206.06;;;5.06;100.00
39897;BME280;25567;48.276;14.242;2023-02-23T08:44:13;98205.66;;;5.09;100.00
39897;BME280;25567;48.276;14.242;2023-02-23T08:46:40;98203.25;;;5.07;100.00
39897;BME280;25567;48.276;14.242;2023-02-23T08:49:09;98203.03;;;5.09;100.00
39897;BME280;25567;48.276;14.242;2023-02-23T08:51:37;98202.06;;;5.16;100.00
39897;BME280;25567;48.276;14.242;2023-02-23T08:54:08;98203.47;;;5.19;100.00
39897;BME280;25567;48.276;14.242;2023-02-23T08:56:40;98201.84;;;5.18;100.00
39897;BME280;25567;48.276;14.242;2023-02-23T08:59:11;98199.44;;;5.23;100.00
39897;BME280;25567;48.276;14.242;2023-02-23T09:01:39;98202.47;;;5.27;100.00
39897;BME280;25567;48.276;14.242;2023-02-23T09:04:06;98203.69;;;5.31;100.00
39897;BME280;25567;48.276;14.242;2023-02-23T09:06:35;98209.38;;;5.34;100.00
39897;BME280;25567;48.276;14.242;2023-02-23T09:09:03;98203.50;;;5.39;100.00
39897;BME280;25567;48.276;14.242;2023-02-23T09:11:33;98202.69;;;5.45;100.00
39897;BME280;25567;48.276;14.242;2023-02-23T09:14:02;98202.09;;;5.50;100.00
39897;BME280;25567;48.276;14.242;2023-02-23T09:16:29;98204.13;;;5.55;100.00
39897;BME280;25567;48.276;14.242;2023-02-23T09:18:59;98202.91;;;5.57;100.00
39897;BME280;25567;48.276;14.242;2023-02-23T09:21:28;98199.25;;;5.65;100.00
39897;BME280;25567;48.276;14.242;2023-02-23T09:23:57;98206.34;;;5.71;100.00
39897;BME280;25567;48.276;14.242;2023-02-23T09:26:27;98198.84;;;5.75;100.00
39897;BME280;25567;48.276;14.242;2023-02-23T09:28:58;98210.59;;;5.79;100.00
39897;BME280;25567;48.276;14.242;2023-02-23T09:31:27;98211.00;;;5.82;100.00
39897;BME280;25567;48.276;14.242;2023-02-23T09:33:58;98208.75;;;5.93;100.00
39897;BME280;25567;48.276;14.242;2023-02-23T09:36:29;98203.72;;;5.98;100.00
39897;BME280;25567;48.276;14.242;2023-02-23T09:38:59;98204.50;;;6.12;100.00
39897;BME280;25567;48.276;14.242;2023-02-23T09:41:49;98209.78;;;6.18;100.00
39897;BME280;25567;48.276;14.242;2023-02-23T09:44:34;98201.84;;;6.25;100.00
39897;BME280;25567;48.276;14.242;2023-02-23T09:47:16;98205.44;;;6.38;100.00
39897;BME280;25567;48.276;14.242;2023-02-23T09:49:49;98200.16;;;6.44;100.00
39897;BME280;25567;48.276;14.242;2023-02-23T09:52:25;98200.56;;;6.48;100.00
39897;BME280;25567;48.276;14.242;2023-02-23T09:54:56;98207.22;;;6.57;100.00
39897;BME280;25567;48.276;14.242;2023-02-23T09:57:35;98203.34;;;6.66;100.00
39897;BME280;25567;48.276;14.242;2023-02-23T10:00:21;98202.72;;;6.71;100.00
39897;BME280;25567;48.276;14.242;2023-02-23T10:05:29;98203.28;;;6.80;100.00
39897;BME280;25567;48.276;14.242;2023-02-23T10:08:05;98212.56;;;6.89;99.07
39897;BME280;25567;48.276;14.242;2023-02-23T10:10:47;98207.69;;;6.93;99.03
39897;BME280;25567;48.276;14.242;2023-02-23T10:16:20;98212.22;;;7.11;98.40
39897;BME280;25567;48.276;14.242;2023-02-23T10:21:26;98209.03;;;7.09;98.45
39897;BME280;25567;48.276;14.242;2023-02-23T10:24:04;98203.53;;;7.10;98.63
39897;BME280;25567;48.276;14.242;2023-02-23T10:26:41;98207.31;;;7.21;97.92
39897;BME280;25567;48.276;14.242;2023-02-23T10:32:06;98201.81;;;7.23;97.25
39897;BME280;25567;48.276;14.242;2023-02-23T10:34:40;98199.78;;;7.25;97.67
39897;BME280;25567;48.276;14.242;2023-02-23T10:37:10;98192.66;;;7.25;98.05
39897;BME280;25567;48.276;14.242;2023-02-23T10:39:39;98196.94;;;7.26;97.42
39897;BME280;25567;48.276;14.242;2023-02-23T10:42:14;98195.25;;;7.32;98.12
39897;BME280;25567;48.276;14.242;2023-02-23T10:44:45;98186.94;;;7.35;97.40
39897;BME280;25567;48.276;14.242;2023-02-23T10:47:19;98183.66;;;7.40;96.98
39897;BME280;25567;48.276;14.242;2023-02-23T10:49:50;98186.88;;;7.42;96.94
39897;BME280;25567;48.276;14.242;2023-02-23T10:54:50;98180.72;;;7.55;96.04
39897;BME280;25567;48.276;14.242;2023-02-23T10:57:24;98181.06;;;7.83;95.39
39897;BME280;25567;48.276;14.242;2023-02-23T11:02:36;98175.44;;;7.98;92.98
39897;BME280;25567;48.276;14.242;2023-02-23T11:05:05;98174.56;;;8.05;93.77
39897;BME280;25567;48.276;14.242;2023-02-23T11:07:35;98171.34;;;8.21;94.05
39897;BME280;25567;48.276;14.242;2023-02-23T11:10:27;98174.41;;;8.18;92.93
39897;BME280;25567;48.276;14.242;2023-02-23T11:12:56;98169.59;;;8.33;92.95
39897;BME280;25567;48.276;14.242;2023-02-23T11:18:06;98157.31;;;8.21;91.69
39897;BME280;25567;48.276;14.242;2023-02-23T11:20:37;98156.75;;;8.18;92.07
39897;BME280;25567;48.276;14.242;2023-02-23T11:23:11;98155.69;;;8.19;92.46
39897;BME280;25567;48.276;14.242;2023-02-23T11:25:44;98157.78;;;8.17;92.82
39897;BME280;25567;48.276;14.242;2023-02-23T11:28:24;98154.47;;;8.22;93.09
39897;BME280;25567;48.276;14.242;2023-02-23T11:31:03;98155.66;;;8.26;92.58
39897;BME280;25567;48.276;14.242;2023-02-23T11:33:37;98152.63;;;8.41;92.40
39897;BME280;25567;48.276;14.242;2023-02-23T11:41:31;98150.38;;;8.63;91.01
39897;BME280;25567;48.276;14.242;2023-02-23T11:44:02;98146.38;;;8.73;91.36
39897;BME280;25567;48.276;14.242;2023-02-23T11:46:36;98134.03;;;8.97;92.10
39897;BME280;25567;48.276;14.242;2023-02-23T11:49:08;98141.50;;;9.00;91.30
39897;BME280;25567;48.276;14.242;2023-02-23T11:51:46;98138.66;;;9.13;88.85
39897;BME280;25567;48.276;14.242;2023-02-23T11:54:23;98141.91;;;9.15;87.76
39897;BME280;25567;48.276;14.242;2023-02-23T11:56:52;98135.78;;;9.15;87.18
39897;BME280;25567;48.276;14.242;2023-02-23T12:02:02;98133.06;;;9.33;86.51
39897;BME280;25567;48.276;14.242;2023-02-23T12:10:10;98129.97;;;9.25;84.98
39897;BME280;25567;48.276;14.242;2023-02-23T12:12:50;98127.56;;;9.23;85.68
39897;BME280;25567;48.276;14.242;2023-02-23T12:15:27;98122.94;;;9.30;86.09
39897;BME280;25567;48.276;14.242;2023-02-23T12:18:03;98121.41;;;9.11;86.19
39897;BME280;25567;48.276;14.242;2023-02-23T12:20:39;98125.13;;;9.10;86.13
39897;BME280;25567;48.276;14.242;2023-02-23T12:23:12;98121.09;;;9.19;85.87
39897;BME280;25567;48.276;14.242;2023-02-23T12:25:56;98122.00;;;9.13;85.50
39897;BME280;25567;48.276;14.242;2023-02-23T12:28:45;98114.28;;;9.11;86.12
39897;BME280;25567;48.276;14.242;2023-02-23T12:31:25;98110.16;;;9.15;85.93
39897;BME280;25567;48.276;14.242;2023-02-23T12:33:59;98108.09;;;9.29;86.09
39897;BME280;25567;48.276;14.242;2023-02-23T12:36:38;98109.59;;;9.25;86.48
39897;BME280;25567;48.276;14.242;2023-02-23T12:39:34;98104.06;;;9.39;85.37
39897;BME280;25567;48.276;14.242;2023-02-23T12:44:55;98096.38;;;9.37;84.78
39897;BME280;25567;48.276;14.242;2023-02-23T12:47:40;98102.03;;;9.41;84.86
39897;BME280;25567;48.276;14.242;2023-02-23T12:55:35;98086.81;;;9.48;85.86
39897;BME280;25567;48.276;14.242;2023-02-23T12:58:14;98080.72;;;9.59;84.89
39897;BME280;25567;48.276;14.242;2023-02-23T13:06:36;98085.53;;;9.74;85.16
39897;BME280;25567;48.276;14.242;2023-02-23T13:09:12;98077.94;;;9.78;85.58
39897;BME280;25567;48.276;14.242;2023-02-23T13:14:44;98070.00;;;9.78;83.59
39897;BME280;25567;48.276;14.242;2023-02-23T13:17:32;98068.50;;;9.82;84.38
39897;BME280;25567;48.276;14.242;2023-02-23T13:23:01;98064.59;;;9.84;85.60
39897;BME280;25567;48.276;14.242;2023-02-23T13:31:19;98061.09;;;9.96;83.99
39897;BME280;25567;48.276;14.242;2023-02-23T13:33:49;98061.53;;;10.05;84.09
39897;BME280;25567;48.276;14.242;2023-02-23T13:36:19;98061.56;;;9.93;84.14
39897;BME280;25567;48.276;14.242;2023-02-23T13:41:49;98057.88;;;9.94;84.63
39897;BME280;25567;48.276;14.242;2023-02-23T13:47:06;98062.00;;;10.01;83.40
39897;BME280;25567;48.276;14.242;2023-02-23T13:49:41;98062.28;;;9.88;83.22
39897;BME280;25567;48.276;14.242;2023-02-23T13:54:59;98055.34;;;9.99;85.13
39897;BME280;25567;48.276;14.242;2023-02-23T13:57:31;98060.63;;;9.99;84.69
39897;BME280;25567;48.276;14.242;2023-02-23T14:00:00;98046.22;;;10.07;84.85
39897;BME280;25567;48.276;14.242;2023-02-23T14:02:39;98053.47;;;9.99;84.72
39897;BME280;25567;48.276;14.242;2023-02-23T14:05:19;98058.91;;;9.93;84.05
39897;BME280;25567;48.276;14.242;2023-02-23T14:07:54;98052.59;;;9.94;84.80
39897;BME280;25567;48.276;14.242;2023-02-23T14:10:28;98051.75;;;9.93;84.41
39897;BME280;25567;48.276;14.242;2023-02-23T14:16:11;98050.72;;;9.94;84.75
39897;BME280;25567;48.276;14.242;2023-02-23T14:19:06;98051.06;;;9.98;84.93
39897;BME280;25567;48.276;14.242;2023-02-23T14:21:48;98048.44;;;9.98;84.77
39897;BME280;25567;48.276;14.242;2023-02-23T14:24:22;98048.66;;;9.96;84.29
39897;BME280;25567;48.276;14.242;2023-02-23T14:27:20;98050.97;;;9.93;85.09
39897;BME280;25567;48.276;14.242;2023-02-23T14:32:43;98048.91;;;9.95;84.60
39897;BME280;25567;48.276;14.242;2023-02-23T14:35:34;98051.44;;;9.90;85.44
39897;BME280;25567;48.276;14.242;2023-02-23T14:38:24;98047.88;;;9.84;85.91
39897;BME280;25567;48.276;14.242;2023-02-23T14:41:13;98051.44;;;9.90;85.45
39897;BME280;25567;48.276;14.242;2023-02-23T14:43:42;98053.16;;;9.84;85.48
39897;BME280;25567;48.276;14.242;2023-02-23T14:46:17;98048.22;;;9.88;85.30
39897;BME280;25567;48.276;14.242;2023-02-23T14:48:59;98046.59;;;9.87;85.69
39897;BME280;25567;48.276;14.242;2023-02-23T14:51:36;98051.91;;;9.87;85.62
39897;BME280;25567;48.276;14.242;2023-02-23T14:54:12;98043.75;;;9.76;86.35
39897;BME280;25567;48.276;14.242;2023-02-23T14:56:46;98053.97;;;9.84;86.03
39897;BME280;25567;48.276;14.242;2023-02-23T14:59:20;98050.06;;;9.87;85.72
39897;BME280;25567;48.276;14.242;2023-02-23T15:01:50;98052.72;;;9.87;86.01
39897;BME280;25567;48.276;14.242;2023-02-23T15:04:22;98042.50;;;9.79;86.82